Time;durP1;ratioP1;P1;durP2;ratioP2;P2;SDS_P1;SDS_P2;PMS_P1;PMS_P2;Temp;Humidity;BMP_temperature;BMP_pressure;BME280_temperature;BME280_humidity;BME280_pressure;Samples;Min_cycle;Max_cycle;Signal;HPM_P1;HPM_P2
2023/12/14 00:01:53;;;;;;;9.98;2.90;;;;;;;10.40;90.54;92090.16;4989314;28;20058;-79
2023/12/14 00:04:20;;;;;;;7.47;2.33;;;;;;;10.41;90.74;92086.59;4992546;28;20042;-79
2023/12/14 00:06:47;;;;;;;9.82;2.53;;;;;;;10.42;90.79;92083.03;4989167;28;20572;-79
2023/12/14 00:09:14;;;;;;;6.80;2.45;;;;;;;10.42;91.04;92083.03;4993027;28;20057;-78
2023/12/14 00:11:41;;;;;;;6.93;1.92;;;;;;;10.38;91.07;92082.69;4989284;28;20088;-78
2023/12/14 00:14:08;;;;;;;6.03;2.38;;;;;;;10.37;91.16;92083.72;4989136;28;20523;-79
2023/12/14 00:16:35;;;;;;;7.07;2.35;;;;;;;10.38;90.88;92097.34;5000019;28;20060;-79
2023/12/14 00:19:03;;;;;;;9.25;2.50;;;;;;;10.29;91.54;92082.31;4988982;28;20673;-79
2023/12/14 00:21:30;;;;;;;7.97;3.08;;;;;;;10.34;91.35;92084.22;4989609;28;20137;-78
2023/12/14 00:23:57;;;;;;;9.07;3.55;;;;;;;10.31;91.53;92074.41;4990398;28;20057;-77
2023/12/14 00:26:24;;;;;;;8.30;3.20;;;;;;;10.37;91.51;92083.72;4988763;28;20054;-78
2023/12/14 00:28:51;;;;;;;9.18;3.42;;;;;;;10.38;91.77;92087.06;4990078;28;20057;-78
2023/12/14 00:31:18;;;;;;;8.18;3.05;;;;;;;10.34;91.65;92071.38;4988590;28;20046;-78
2023/12/14 00:33:45;;;;;;;7.28;2.80;;;;;;;10.37;90.47;92083.72;4988864;28;20057;-78
2023/12/14 00:36:20;;;;;;;9.60;3.00;;;;;;;10.36;90.95;92078.81;4988637;28;20054;-78
2023/12/14 00:38:47;;;;;;;10.35;2.58;;;;;;;10.39;90.60;92080.91;4989138;28;20054;-78
2023/12/14 00:41:14;;;;;;;8.80;2.80;;;;;;;10.21;91.16;92064.78;4990894;28;20054;-78
2023/12/14 00:43:41;;;;;;;9.02;2.95;;;;;;;10.21;91.04;92077.59;4989252;28;20046;-79
2023/12/14 00:46:09;;;;;;;8.05;2.53;;;;;;;10.24;91.55;92096.88;4990351;28;20042;-78
2023/12/14 00:48:36;;;;;;;7.70;3.00;;;;;;;10.26;91.95;92082.03;5002233;28;20499;-77
2023/12/14 00:51:03;;;;;;;14.27;4.10;;;;;;;10.25;91.56;92080.47;4994577;28;20062;-77
2023/12/14 00:53:31;;;;;;;40.85;19.67;;;;;;;10.27;92.00;92092.06;4988589;28;20133;-77
2023/12/14 00:55:58;;;;;;;9.30;3.40;;;;;;;10.21;92.13;92097.34;4988452;28;20496;-78
2023/12/14 00:58:25;;;;;;;10.82;3.50;;;;;;;10.18;91.35;92085.00;4988475;28;20046;-79
2023/12/14 01:00:54;;;;;;;12.77;4.80;;;;;;;10.25;91.42;92083.03;4988845;28;20056;-77
2023/12/14 01:03:21;;;;;;;8.23;3.20;;;;;;;10.25;91.58;92085.59;4991000;28;20046;-77
2023/12/14 01:05:48;;;;;;;13.35;6.70;;;;;;;10.27;91.83;92088.72;4990908;28;20042;-77
2023/12/14 01:08:15;;;;;;;10.02;3.22;;;;;;;10.26;91.38;92075.13;4988586;28;20047;-78
2023/12/14 01:10:44;;;;;;;7.47;2.78;;;;;;;10.13;91.82;92065.94;4988206;28;20083;-79
2023/12/14 01:13:10;;;;;;;9.23;3.40;;;;;;;10.15;91.97;92063.91;4990469;28;20403;-79
2023/12/14 01:15:37;;;;;;;9.43;4.03;;;;;;;10.14;91.94;92066.72;4988400;28;20060;-79
2023/12/14 01:18:04;;;;;;;8.25;3.22;;;;;;;10.14;91.91;92074.44;4988420;28;20072;-78
2023/12/14 01:20:31;;;;;;;14.98;4.30;;;;;;;10.12;92.23;92064.41;4990002;28;20068;-78
2023/12/14 01:22:58;;;;;;;14.30;4.82;;;;;;;10.03;92.20;92046.06;4988624;28;20554;-77
2023/12/14 01:25:25;;;;;;;10.45;3.50;;;;;;;10.13;91.72;92068.50;4990411;28;20054;-77
2023/12/14 01:27:53;;;;;;;11.85;7.10;;;;;;;10.12;91.49;92066.16;4988198;28;20416;-77
2023/12/14 01:30:21;;;;;;;11.88;4.47;;;;;;;10.05;91.95;92057.88;4991925;28;20056;-77
2023/12/14 01:32:47;;;;;;;9.88;4.18;;;;;;;10.03;91.88;92048.63;4999577;28;20128;-78
2023/12/14 01:35:15;;;;;;;10.45;5.97;;;;;;;9.97;92.00;92038.50;4995067;28;20398;-79
2023/12/14 01:37:41;;;;;;;12.02;4.78;;;;;;;10.01;92.16;92060.88;4988227;28;20141;-80
2023/12/14 01:40:09;;;;;;;9.25;4.32;;;;;;;10.00;91.77;92049.06;4994174;28;20415;-79
2023/12/14 01:42:36;;;;;;;17.80;13.15;;;;;;;10.07;91.80;92059.19;4994110;28;20542;-79
2023/12/14 01:45:05;;;;;;;13.68;6.63;;;;;;;10.11;91.18;92062.84;4994253;28;20133;-78
2023/12/14 01:47:32;;;;;;;11.45;3.20;;;;;;;10.04;91.35;92041.69;4992986;28;20046;-79
2023/12/14 01:49:59;;;;;;;25.60;16.60;;;;;;;10.14;90.81;92048.78;4995271;28;20416;-79
2023/12/14 01:52:26;;;;;;;8.82;5.07;;;;;;;10.16;90.07;92050.09;4992014;28;20060;-79
2023/12/14 01:54:55;;;;;;;14.13;9.82;;;;;;;10.18;90.55;92049.06;4992400;28;20532;-79
2023/12/14 01:57:22;;;;;;;10.77;6.45;;;;;;;10.14;89.94;92046.97;4994247;28;20053;-78
2023/12/14 01:59:48;;;;;;;10.13;3.67;;;;;;;9.87;90.93;92064.78;4991357;28;20125;-78
2023/12/14 02:02:17;;;;;;;8.15;3.10;;;;;;;9.88;90.72;92056.09;4991930;28;20054;-79
2023/12/14 02:04:44;;;;;;;6.93;3.17;;;;;;;9.84;90.97;92050.66;4993260;28;20054;-78
2023/12/14 02:07:12;;;;;;;5.80;3.20;;;;;;;9.78;91.12;92049.03;4993752;28;20057;-78
2023/12/14 02:09:39;;;;;;;13.68;4.45;;;;;;;9.69;91.41;92047.84;4991274;28;20523;-79
2023/12/14 02:12:06;;;;;;;9.38;4.13;;;;;;;9.78;91.50;92043.91;4994862;28;20050;-79
2023/12/14 02:14:33;;;;;;;13.32;5.35;;;;;;;9.65;92.16;92011.63;4990898;28;20050;-79
2023/12/14 02:17:00;;;;;;;14.68;5.55;;;;;;;9.79;91.91;92034.41;4991301;28;20089;-79
2023/12/14 02:19:28;;;;;;;9.35;4.95;;;;;;;9.85;91.32;92041.94;5002720;28;20056;-79
2023/12/14 02:21:55;;;;;;;7.35;3.30;;;;;;;9.69;91.34;91999.91;4991817;28;20053;-80
2023/12/14 02:24:24;;;;;;;4.53;1.90;;;;;;;9.96;90.53;92022.34;4991315;28;20129;-79
2023/12/14 02:26:51;;;;;;;7.35;1.95;;;;;;;10.08;90.41;92021.47;4996792;28;20043;-79
2023/12/14 02:29:17;;;;;;;7.05;2.15;;;;;;;10.12;89.38;92015.66;4990493;28;20595;-79
2023/12/14 02:31:44;;;;;;;6.85;1.92;;;;;;;10.27;88.75;92022.75;4991179;28;20054;-79
2023/12/14 02:34:11;;;;;;;4.38;2.10;;;;;;;10.35;88.98;92025.94;4995316;28;20412;-80
2023/12/14 02:36:38;;;;;;;4.75;2.00;;;;;;;10.33;88.52;92022.84;4990721;28;20141;-79
2023/12/14 02:39:05;;;;;;;8.25;2.75;;;;;;;10.34;88.36;92011.53;5006896;28;20056;-78
2023/12/14 02:41:33;;;;;;;7.20;2.75;;;;;;;10.33;88.84;92020.25;4993194;28;20042;-78
2023/12/14 02:44:00;;;;;;;7.63;2.70;;;;;;;10.46;88.52;92030.22;4990371;28;20149;-79
2023/12/14 02:46:27;;;;;;;7.55;2.70;;;;;;;10.38;88.75;92028.78;4991265;28;20050;-79
2023/12/14 02:48:54;;;;;;;8.27;2.85;;;;;;;10.44;88.62;92034.81;4990355;28;20046;-79
2023/12/14 02:51:21;;;;;;;8.35;3.20;;;;;;;10.38;89.29;92036.50;4993175;28;20060;-79
2023/12/14 02:53:48;;;;;;;7.95;2.90;;;;;;;10.25;89.47;92029.94;4995424;28;20504;-79
2023/12/14 02:56:15;;;;;;;7.55;2.83;;;;;;;10.28;89.82;92041.53;4990822;28;20057;-79
2023/12/14 02:58:43;;;;;;;8.48;3.03;;;;;;;10.04;90.63;92021.16;4990874;28;20042;-80
2023/12/14 03:01:10;;;;;;;12.45;3.50;;;;;;;10.19;90.12;92045.50;4990489;28;20129;-78
2023/12/14 03:03:39;;;;;;;8.95;3.50;;;;;;;10.11;90.97;92037.19;4990519;28;20056;-78
2023/12/14 03:06:06;;;;;;;7.15;3.25;;;;;;;10.14;90.86;92043.63;4990510;28;20042;-78
2023/12/14 03:08:33;;;;;;;13.30;3.90;;;;;;;10.13;90.87;92047.19;4994462;28;20050;-78
2023/12/14 03:11:00;;;;;;;9.95;3.60;;;;;;;10.12;90.74;92036.16;4989914;28;20052;-79
2023/12/14 03:13:28;;;;;;;12.70;3.67;;;;;;;10.00;90.65;92032.94;4990387;28;20053;-80
2023/12/14 03:15:56;;;;;;;8.73;3.58;;;;;;;9.97;90.99;92018.78;4990747;28;20081;-79
2023/12/14 03:18:23;;;;;;;9.32;3.13;;;;;;;10.11;90.86;92052.59;4990093;28;20056;-80
2023/12/14 03:20:50;;;;;;;11.90;3.33;;;;;;;10.11;91.14;92055.16;4994488;28;20058;-79
2023/12/14 03:23:17;;;;;;;9.77;3.17;;;;;;;10.08;90.73;92055.59;4989747;28;20050;-79
2023/12/14 03:25:44;;;;;;;11.38;3.65;;;;;;;10.07;90.75;92053.28;4991803;28;20060;-80
2023/12/14 03:28:11;;;;;;;9.65;3.97;;;;;;;10.05;91.17;92052.75;4990047;28;20121;-80
2023/12/14 03:30:38;;;;;;;11.05;3.33;;;;;;;10.03;91.13;92048.63;4989735;28;20564;-79
2023/12/14 03:33:07;;;;;;;6.78;3.15;;;;;;;9.99;91.44;92050.09;4996735;28;20054;-80
2023/12/14 03:35:35;;;;;;;8.45;3.53;;;;;;;9.95;91.84;92053.38;5006078;28;20042;-80
2023/12/14 03:38:02;;;;;;;11.70;5.30;;;;;;;9.82;92.92;92032.13;4995472;28;20050;-80
2023/12/14 03:40:29;;;;;;;8.27;4.03;;;;;;;9.88;92.24;92038.13;4989784;28;20144;-79
2023/12/14 03:42:56;;;;;;;9.35;3.55;;;;;;;9.97;91.96;92031.59;5005353;28;20125;-79
2023/12/14 03:45:23;;;;;;;9.90;3.92;;;;;;;9.86;92.64;92038.34;4991644;28;20129;-79
2023/12/14 03:47:50;;;;;;;9.13;3.70;;;;;;;9.85;92.33;92029.13;5003572;28;20049;-79
2023/12/14 03:50:19;;;;;;;7.50;3.28;;;;;;;9.91;92.97;92031.75;4989634;28;20054;-79
2023/12/14 03:52:46;;;;;;;7.95;3.47;;;;;;;9.89;92.90;92043.03;4990523;28;20042;-79
2023/12/14 03:55:14;;;;;;;8.38;3.55;;;;;;;9.84;92.96;92027.56;4989311;28;20050;-79
2023/12/14 03:57:41;;;;;;;8.75;3.38;;;;;;;9.88;92.58;92026.09;4989707;28;20058;-79
2023/12/14 04:00:11;;;;;;;8.68;3.30;;;;;;;9.84;92.50;92013.94;4990013;28;20137;-80
2023/12/14 04:02:38;;;;;;;11.30;3.53;;;;;;;9.87;93.01;92039.16;4992472;28;20571;-80
2023/12/14 04:05:06;;;;;;;6.97;2.88;;;;;;;9.94;92.17;92032.06;4989604;28;20052;-79
2023/12/14 04:07:35;;;;;;;8.45;4.20;;;;;;;9.93;92.45;92035.66;4999565;28;20054;-79
2023/12/14 04:10:02;;;;;;;9.52;4.32;;;;;;;10.01;91.93;92034.47;5007270;28;20053;-79
2023/12/14 04:12:29;;;;;;;9.98;4.22;;;;;;;10.07;91.14;92036.09;4993478;28;20096;-78
2023/12/14 04:14:56;;;;;;;10.80;3.70;;;;;;;10.14;91.00;92034.13;4989620;28;20046;-79
2023/12/14 04:17:24;;;;;;;10.07;3.97;;;;;;;9.95;91.01;92014.91;4990928;28;20157;-79
2023/12/14 04:19:51;;;;;;;17.23;8.15;;;;;;;10.18;90.74;92038.81;4989031;28;20054;-78
2023/12/14 04:22:18;;;;;;;11.60;3.38;;;;;;;10.23;90.37;92036.31;4990605;28;20137;-78
2023/12/14 04:24:46;;;;;;;6.50;2.53;;;;;;;10.27;90.26;92045.06;4989034;28;20062;-78
2023/12/14 04:27:13;;;;;;;9.50;3.17;;;;;;;10.36;89.18;92037.75;4988922;28;20054;-78
2023/12/14 04:29:40;;;;;;;7.38;2.50;;;;;;;10.45;88.92;92035.59;4992682;28;20492;-78
2023/12/14 04:32:08;;;;;;;13.10;3.92;;;;;;;10.54;87.58;92016.19;5003957;28;20062;-78
2023/12/14 04:34:35;;;;;;;9.05;3.75;;;;;;;10.68;87.17;92027.66;4990881;28;20054;-79
2023/12/14 04:37:02;;;;;;;9.98;2.85;;;;;;;10.69;87.05;92031.78;4989701;28;20056;-79
2023/12/14 04:39:29;;;;;;;9.05;3.75;;;;;;;10.76;87.01;92020.53;4998647;28;20053;-80
2023/12/14 04:41:57;;;;;;;11.90;3.53;;;;;;;10.79;86.78;92022.66;5007506;28;20064;-80
2023/12/14 04:44:24;;;;;;;6.97;2.88;;;;;;;10.82;86.66;92027.28;4996898;28;20053;-80
2023/12/14 04:46:51;;;;;;;13.25;5.30;;;;;;;10.84;86.04;92027.84;4988782;28;20046;-79
2023/12/14 04:49:19;;;;;;;8.93;2.80;;;;;;;10.90;85.83;92020.94;4988307;28;20058;-80
2023/12/14 04:51:46;;;;;;;7.75;3.95;;;;;;;10.92;85.69;92042.06;4989934;28;20132;-80
2023/12/14 04:54:13;;;;;;;7.20;2.67;;;;;;;10.98;85.66;92038.53;4988441;28;20133;-80
2023/12/14 04:56:41;;;;;;;5.88;2.50;;;;;;;10.86;84.69;92010.38;4988303;28;20089;-79
2023/12/14 04:59:09;;;;;;;7.47;2.53;;;;;;;11.00;84.66;92036.47;4989104;28;20050;-80
2023/12/14 05:01:36;;;;;;;6.72;2.90;;;;;;;11.07;84.58;92039.63;4992516;28;20053;-80
2023/12/14 05:04:03;;;;;;;9.20;2.92;;;;;;;11.09;84.92;92040.19;4988322;28;20133;-79
2023/12/14 05:06:32;;;;;;;5.70;2.50;;;;;;;11.11;84.36;92036.59;4990336;28;20416;-80
2023/12/14 05:09:01;;;;;;;9.95;2.92;;;;;;;11.09;84.28;92034.25;4991740;28;20050;-79
2023/12/14 05:11:28;;;;;;;9.38;3.70;;;;;;;10.98;84.24;92017.19;4988570;28;20058;-78
2023/12/14 05:13:55;;;;;;;14.93;8.00;;;;;;;11.08;84.39;92035.28;4991906;28;20149;-77
2023/12/14 05:16:26;;;;;;;11.50;4.88;;;;;;;11.14;84.31;92046.38;4991909;28;20050;-75
2023/12/14 05:18:53;;;;;;;14.23;6.53;;;;;;;11.04;84.98;92055.53;4991774;28;20047;-76
2023/12/14 05:21:20;;;;;;;10.55;5.00;;;;;;;10.90;85.47;92038.94;4991615;28;20141;-76
2023/12/14 05:23:47;;;;;;;8.55;3.80;;;;;;;10.90;85.33;92044.06;4992134;28;20081;-76
2023/12/14 05:26:14;;;;;;;8.10;4.20;;;;;;;10.80;85.69;92045.50;4991847;28;20050;-77
2023/12/14 05:28:41;;;;;;;8.07;3.80;;;;;;;10.81;85.94;92052.22;4992125;28;20042;-80
2023/12/14 05:31:08;;;;;;;10.18;3.97;;;;;;;10.88;85.44;92048.69;4991977;28;20133;-80
2023/12/14 05:33:39;;;;;;;8.43;4.35;;;;;;;10.89;85.04;92051.03;4992179;28;20081;-79
2023/12/14 05:36:10;;;;;;;7.70;4.35;;;;;;;10.81;85.67;92048.84;4991775;28;20133;-79
2023/12/14 05:38:37;;;;;;;9.85;4.07;;;;;;;10.82;85.46;92048.63;4991802;28;20129;-79
2023/12/14 05:41:04;;;;;;;9.85;4.90;;;;;;;10.85;85.18;92051.72;4991976;28;20054;-79
2023/12/14 05:43:31;;;;;;;9.98;6.15;;;;;;;10.80;85.51;92055.03;4992034;28;20412;-80
2023/12/14 05:45:58;;;;;;;11.80;5.22;;;;;;;10.81;85.64;92056.56;4991976;28;20499;-79
2023/12/14 05:48:26;;;;;;;8.80;4.95;;;;;;;10.83;85.26;92051.94;4991675;28;20137;-78
2023/12/14 05:50:55;;;;;;;7.50;3.33;;;;;;;10.94;84.66;92053.63;4991571;28;20100;-77
2023/12/14 05:53:22;;;;;;;6.68;2.28;;;;;;;10.94;84.45;92045.91;4991542;28;20150;-78
2023/12/14 05:55:49;;;;;;;8.80;4.65;;;;;;;11.03;84.22;92041.16;4991621;28;20086;-78
2023/12/14 05:58:16;;;;;;;9.68;5.25;;;;;;;11.12;83.88;92056.13;4991856;28;20076;-78
2023/12/14 06:00:42;;;;;;;7.03;2.80;;;;;;;11.14;83.68;92059.22;4991542;28;20042;-79
2023/12/14 06:03:09;;;;;;;4.35;2.35;;;;;;;11.20;82.89;92061.63;4991829;28;20133;-78
2023/12/14 06:05:36;;;;;;;8.35;4.13;;;;;;;11.30;82.97;92062.75;4991940;28;20460;-78
2023/12/14 06:08:05;;;;;;;7.05;3.13;;;;;;;11.32;82.68;92065.84;4991201;28;20493;-77
2023/12/14 06:10:32;;;;;;;6.53;3.28;;;;;;;11.33;82.31;92057.09;4991324;28;20480;-79
2023/12/14 06:12:59;;;;;;;5.47;3.35;;;;;;;11.35;82.11;92062.78;4989538;28;20057;-80
2023/12/14 06:15:26;;;;;;;8.40;4.82;;;;;;;11.44;81.94;92063.88;4990021;28;20073;-80
2023/12/14 06:17:53;;;;;;;8.77;4.65;;;;;;;11.34;82.42;92067.16;4989325;28;20129;-80
2023/12/14 06:20:20;;;;;;;6.55;2.70;;;;;;;11.43;82.04;92077.00;4987079;28;20058;-79
2023/12/14 06:22:47;;;;;;;5.93;2.70;;;;;;;11.41;81.96;92077.25;4991916;28;20436;-79
2023/12/14 06:25:16;;;;;;;6.18;2.70;;;;;;;11.48;82.61;92085.53;4990720;28;20042;-79
2023/12/14 06:27:43;;;;;;;5.85;2.58;;;;;;;11.42;82.30;92083.94;4995220;28;20064;-79
2023/12/14 06:30:11;;;;;;;11.00;4.68;;;;;;;11.40;82.26;92082.63;4993406;28;20050;-79
2023/12/14 06:32:38;;;;;;;7.10;2.75;;;;;;;11.41;82.84;92079.03;4994522;28;20073;-79
2023/12/14 06:35:06;;;;;;;12.93;4.65;;;;;;;11.39;83.35;92086.22;4998935;28;20530;-78
2023/12/14 06:37:33;;;;;;;12.63;5.45;;;;;;;11.11;84.04;92072.56;4992668;28;20046;-80
2023/12/14 06:40:00;;;;;;;13.30;6.40;;;;;;;11.18;84.81;92083.44;4993867;28;20076;-80
2023/12/14 06:42:30;;;;;;;12.75;5.10;;;;;;;11.25;84.67;92093.53;4992938;28;20151;-80
2023/12/14 06:44:57;;;;;;;13.63;5.60;;;;;;;11.24;84.78;92092.75;4996975;28;20096;-80
2023/12/14 06:47:24;;;;;;;10.13;5.70;;;;;;;11.20;84.41;92083.97;5006570;28;20430;-79
2023/12/14 06:49:51;;;;;;;11.35;5.95;;;;;;;11.25;83.96;92099.44;4994987;28;20046;-79
2023/12/14 06:52:18;;;;;;;10.90;5.13;;;;;;;11.32;83.84;92088.97;4990648;28;20061;-79
2023/12/14 06:54:45;;;;;;;11.40;4.38;;;;;;;11.41;83.93;92090.09;4995375;28;20411;-80
2023/12/14 06:57:12;;;;;;;7.78;3.55;;;;;;;11.40;83.64;92080.84;4990528;28;20056;-80
2023/12/14 06:59:40;;;;;;;18.15;5.13;;;;;;;11.48;83.62;92089.91;4997800;28;20050;-79
2023/12/14 07:02:07;;;;;;;9.88;3.42;;;;;;;11.54;83.47;92083.81;4990390;28;20419;-79
2023/12/14 07:04:34;;;;;;;11.68;5.22;;;;;;;11.56;83.36;92097.19;4998852;28;20075;-80
2023/12/14 07:07:01;;;;;;;11.38;4.80;;;;;;;11.65;83.22;92107.03;4992869;28;20129;-79
2023/12/14 07:09:29;;;;;;;11.20;4.63;;;;;;;11.71;83.15;92103.50;4990486;28;20051;-79
2023/12/14 07:11:56;;;;;;;11.15;5.45;;;;;;;11.76;82.82;92094.03;4997886;28;20046;-79
2023/12/14 07:14:23;;;;;;;12.40;4.93;;;;;;;11.75;82.47;92089.09;4992962;28;20053;-79
2023/12/14 07:16:51;;;;;;;7.82;3.67;;;;;;;11.92;82.12;92090.78;4992356;28;20046;-79
2023/12/14 07:19:18;;;;;;;9.07;3.42;;;;;;;11.96;81.22;92099.59;4989633;28;20057;-78
2023/12/14 07:21:45;;;;;;;15.38;3.58;;;;;;;11.99;81.28;92106.81;4993086;28;20056;-79
2023/12/14 07:24:12;;;;;;;9.35;3.92;;;;;;;12.01;80.97;92107.34;4990128;28;20056;-79
2023/12/14 07:26:39;;;;;;;11.93;4.72;;;;;;;11.95;80.46;92080.78;4989994;28;20060;-80
2023/12/14 07:29:06;;;;;;;15.73;4.60;;;;;;;12.01;80.61;92097.84;4991945;28;20500;-78
2023/12/14 07:31:33;;;;;;;17.42;4.22;;;;;;;12.20;80.56;92117.28;4989706;28;20054;-79
2023/12/14 07:34:02;;;;;;;15.25;4.78;;;;;;;12.28;80.32;92115.03;4989786;28;20140;-79
2023/12/14 07:36:29;;;;;;;7.03;3.55;;;;;;;12.41;80.15;92118.22;4989916;28;20173;-77
2023/12/14 07:38:56;;;;;;;11.65;4.32;;;;;;;12.42;79.67;92114.63;4990041;28;20188;-77
2023/12/14 07:41:27;;;;;;;11.50;4.38;;;;;;;12.47;79.83;92121.59;4989829;28;20173;-78
2023/12/14 07:43:54;;;;;;;6.07;2.42;;;;;;;12.47;79.44;92088.13;4990233;28;20420;-77
2023/12/14 07:46:21;;;;;;;10.63;3.70;;;;;;;12.48;79.91;92102.53;4990243;28;20042;-78
2023/12/14 07:48:48;;;;;;;7.95;3.17;;;;;;;12.60;79.69;92117.81;4996109;28;20080;-78
2023/12/14 07:51:17;;;;;;;8.57;3.00;;;;;;;12.63;79.96;92107.03;5007801;28;20050;-78
2023/12/14 07:53:46;;;;;;;11.55;4.45;;;;;;;12.56;79.73;92104.66;4990493;28;20049;-77
2023/12/14 07:56:13;;;;;;;16.00;4.80;;;;;;;12.65;79.75;92120.44;4991363;28;20149;-77
2023/12/14 07:58:40;;;;;;;10.23;2.90;;;;;;;12.66;80.20;92127.91;4998925;28;20050;-78
2023/12/14 08:01:07;;;;;;;7.05;3.25;;;;;;;12.77;79.56;92131.31;4994014;28;20600;-79
2023/12/14 08:03:34;;;;;;;12.10;4.70;;;;;;;12.82;79.43;92115.09;4996924;28;20050;-77
2023/12/14 08:06:01;;;;;;;27.75;6.00;;;;;;;12.83;79.61;92106.34;4996903;28;20054;-77
2023/12/14 08:08:29;;;;;;;22.55;5.35;;;;;;;13.07;79.62;92134.28;4996076;28;20053;-78
2023/12/14 08:10:56;;;;;;;14.52;4.55;;;;;;;13.07;79.23;92129.94;4998689;28;20046;-77
2023/12/14 08:13:23;;;;;;;14.82;5.88;;;;;;;13.12;79.41;92123.22;5006928;28;20060;-79
2023/12/14 08:15:50;;;;;;;10.90;4.47;;;;;;;13.05;79.58;92124.22;5006751;28;20046;-77
2023/12/14 08:18:17;;;;;;;12.63;3.40;;;;;;;13.02;78.95;92136.84;4992628;28;20057;-77
2023/12/14 08:20:44;;;;;;;14.18;5.13;;;;;;;13.09;79.28;92130.44;4988925;28;20046;-76
2023/12/14 08:23:11;;;;;;;12.43;4.28;;;;;;;13.09;79.59;92130.44;4992084;28;20054;-76
2023/12/14 08:25:40;;;;;;;7.43;3.15;;;;;;;13.13;79.80;92135.06;4989280;28;20046;-76
2023/12/14 08:28:07;;;;;;;9.27;3.08;;;;;;;13.09;79.76;92130.44;4993010;28;20108;-77
2023/12/14 08:30:34;;;;;;;107.72;54.75;;;;;;;13.09;79.46;92124.50;4988887;28;20051;-77
2023/12/14 08:33:01;;;;;;;17.98;8.15;;;;;;;13.08;79.81;92126.31;4988436;28;20073;-76
2023/12/14 08:35:28;;;;;;;15.95;7.38;;;;;;;13.09;78.91;92127.84;4988479;28;20050;-76
2023/12/14 08:37:55;;;;;;;35.15;19.05;;;;;;;13.08;79.00;92126.31;4989954;28;20050;-76
2023/12/14 08:40:22;;;;;;;28.20;14.38;;;;;;;13.14;79.00;92127.09;4991118;28;20420;-77
2023/12/14 08:42:50;;;;;;;53.40;24.95;;;;;;;13.19;79.08;92123.78;4988846;28;20046;-77
2023/12/14 08:45:17;;;;;;;18.65;7.90;;;;;;;13.17;78.43;92124.03;4988742;28;20465;-77
2023/12/14 08:47:44;;;;;;;29.25;14.90;;;;;;;13.26;78.18;92128.69;4988113;28;20047;-76
2023/12/14 08:50:11;;;;;;;145.77;60.03;;;;;;;13.31;78.65;92132.06;4988390;28;20046;-76
2023/12/14 08:52:38;;;;;;;95.95;38.08;;;;;;;13.39;77.97;92146.28;4990706;28;20050;-77
2023/12/14 08:55:06;;;;;;;57.10;20.52;;;;;;;13.43;78.01;92142.16;4989808;28;20065;-77
2023/12/14 08:57:32;;;;;;;21.80;9.57;;;;;;;13.47;77.91;92132.91;4988709;28;20084;-77
2023/12/14 09:00:01;;;;;;;16.80;7.82;;;;;;;13.49;77.83;92136.03;4987565;28;20054;-77
2023/12/14 09:02:28;;;;;;;21.73;7.68;;;;;;;13.44;77.22;92128.25;5002592;28;20050;-76
2023/12/14 09:04:55;;;;;;;20.52;9.27;;;;;;;13.49;77.54;92114.59;5001395;28;20046;-77
2023/12/14 09:07:22;;;;;;;13.50;5.57;;;;;;;13.48;76.39;92102.75;4994903;28;20497;-77
2023/12/14 09:09:49;;;;;;;28.48;10.98;;;;;;;13.73;76.63;92125.25;5005129;28;20059;-77
2023/12/14 09:12:16;;;;;;;20.30;10.07;;;;;;;13.74;76.67;92100.97;4990678;28;20423;-77
2023/12/14 09:14:42;;;;;;;20.45;10.32;;;;;;;13.83;76.73;92113.38;4997199;28;20065;-77
2023/12/14 09:17:11;;;;;;;37.40;18.70;;;;;;;13.90;76.55;92121.66;4988039;28;20057;-77
2023/12/14 09:19:38;;;;;;;20.98;8.80;;;;;;;13.94;76.24;92114.16;4989958;28;20069;-77
2023/12/14 09:22:05;;;;;;;39.67;19.63;;;;;;;14.02;76.80;92117.00;4988108;28;20054;-77
2023/12/14 09:24:32;;;;;;;49.85;21.77;;;;;;;14.02;76.35;92123.97;4992355;28;20050;-76
2023/12/14 09:26:59;;;;;;;61.35;29.13;;;;;;;14.01;76.39;92123.22;4987776;28;20042;-76
2023/12/14 09:29:26;;;;;;;80.63;35.25;;;;;;;14.11;76.15;92124.22;4987816;28;20593;-76
2023/12/14 09:31:53;;;;;;;57.40;28.40;;;;;;;14.13;75.88;92112.59;4988075;28;20054;-76
2023/12/14 09:34:21;;;;;;;52.78;26.73;;;;;;;14.18;75.78;92109.25;4987776;28;20505;-77
2023/12/14 09:36:48;;;;;;;103.60;52.00;;;;;;;14.18;75.16;92106.69;4988045;28;20061;-75
2023/12/14 09:39:15;;;;;;;123.75;59.85;;;;;;;14.24;75.42;92108.22;4988126;28;20046;-76
2023/12/14 09:41:42;;;;;;;86.90;40.45;;;;;;;14.02;75.76;92078.28;4989853;28;20054;-77
2023/12/14 09:44:10;;;;;;;37.22;15.98;;;;;;;14.23;75.14;92111.06;4987499;28;20046;-76
2023/12/14 09:46:38;;;;;;;39.92;18.30;;;;;;;14.34;75.37;92115.19;4988289;28;20082;-77
2023/12/14 09:49:06;;;;;;;29.42;13.25;;;;;;;14.39;74.31;92114.41;4987851;28;20053;-77
2023/12/14 09:51:34;;;;;;;25.38;12.15;;;;;;;14.45;74.16;92115.19;4987993;28;20050;-76
2023/12/14 09:54:00;;;;;;;53.05;21.95;;;;;;;14.48;74.37;92130.19;4988588;28;20058;-76
2023/12/14 09:56:28;;;;;;;78.75;27.85;;;;;;;14.53;74.50;92118.00;4987764;28;20042;-77
2023/12/14 09:58:55;;;;;;;59.75;22.02;;;;;;;14.48;74.18;92097.34;4988120;28;20072;-77
2023/12/14 10:01:26;;;;;;;63.72;26.98;;;;;;;14.52;73.29;92095.78;4991033;28;20058;-76
2023/12/14 10:04:09;;;;;;;180.20;72.95;;;;;;;14.63;73.28;92119.03;4991665;28;20057;-77
2023/12/14 10:06:37;;;;;;;41.00;17.08;;;;;;;14.57;72.44;92116.47;4995270;28;20046;-77
2023/12/14 10:09:04;;;;;;;27.60;10.93;;;;;;;14.62;72.69;92127.84;4991544;28;20060;-76
2023/12/14 10:11:31;;;;;;;60.75;26.95;;;;;;;14.62;73.24;92120.09;4991628;28;20078;-76
2023/12/14 10:13:58;;;;;;;147.68;60.65;;;;;;;14.64;73.11;92118.00;4991252;28;20058;-77
2023/12/14 10:16:30;;;;;;;77.25;33.25;;;;;;;14.60;73.09;92117.75;4992014;28;20050;-76
2023/12/14 10:18:58;;;;;;;113.80;45.58;;;;;;;14.52;72.93;92095.00;4991521;28;20381;-76
2023/12/14 10:21:25;;;;;;;64.55;26.67;;;;;;;14.63;73.27;92108.69;4992923;28;20066;-76
2023/12/14 10:23:56;;;;;;;85.93;33.05;;;;;;;14.55;73.17;92112.59;4991054;28;20489;-76
2023/12/14 10:26:24;;;;;;;79.95;29.10;;;;;;;14.51;72.95;92111.56;4991541;28;20047;-76
2023/12/14 10:28:52;;;;;;;205.30;70.78;;;;;;;14.52;73.54;92103.53;4993106;28;20408;-76
2023/12/14 10:31:19;;;;;;;103.40;38.60;;;;;;;14.46;73.10;92096.84;4996292;28;20057;-77
2023/12/14 10:33:47;;;;;;;98.95;35.85;;;;;;;14.51;73.01;92107.16;4990993;28;20058;-76
2023/12/14 10:36:15;;;;;;;78.00;28.63;;;;;;;14.55;73.44;92110.75;4991076;28;20042;-76
2023/12/14 10:38:44;;;;;;;120.40;42.08;;;;;;;14.58;73.57;92114.63;4992926;28;20077;-77
2023/12/14 10:41:14;;;;;;;193.50;66.82;;;;;;;14.56;73.56;92114.91;5001503;28;20068;-77
2023/12/14 10:43:42;;;;;;;211.90;76.03;;;;;;;14.60;73.74;92119.56;4990886;28;20054;-77
2023/12/14 10:46:12;;;;;;;134.35;53.28;;;;;;;14.60;73.38;92119.56;4991324;28;20500;-77
2023/12/14 10:48:42;;;;;;;49.53;21.05;;;;;;;14.64;73.57;92133.50;4994725;28;20381;-77
2023/12/14 10:51:11;;;;;;;45.38;19.05;;;;;;;14.64;73.57;92147.22;4990788;28;20050;-77
2023/12/14 10:53:38;;;;;;;22.90;9.50;;;;;;;14.64;73.89;92160.13;4992697;28;20151;-77
2023/12/14 10:56:10;;;;;;;18.10;7.95;;;;;;;14.69;74.36;92165.28;4990385;28;20046;-77
2023/12/14 10:58:49;;;;;;;9.90;4.75;;;;;;;14.66;74.75;92170.97;4990775;28;20069;-77
2023/12/14 11:01:17;;;;;;;14.43;5.93;;;;;;;14.49;74.81;92181.56;4990377;28;20520;-76
2023/12/14 11:03:45;;;;;;;10.50;4.90;;;;;;;14.36;76.16;92190.63;4992859;28;20065;-76
2023/12/14 11:06:32;;;;;;;13.70;4.88;;;;;;;14.37;76.52;92189.59;4990358;28;20061;-76
2023/12/14 11:09:00;;;;;;;8.20;4.35;;;;;;;14.13;78.00;92179.00;4994073;28;20052;-76
2023/12/14 11:11:30;;;;;;;11.15;4.93;;;;;;;13.79;80.53;92192.34;4991934;28;20050;-76
2023/12/14 11:13:58;;;;;;;15.80;6.13;;;;;;;13.67;82.22;92202.88;4990157;28;20137;-76
2023/12/14 11:16:28;;;;;;;13.98;5.63;;;;;;;13.55;82.84;92208.25;4994255;28;20424;-77
2023/12/14 11:19:34;;;;;;;36.67;7.70;;;;;;;13.04;85.30;92218.06;4990437;28;20054;-76
2023/12/14 11:22:23;;;;;;;10.65;4.20;;;;;;;12.18;86.70;92189.63;4985284;28;20054;-77
2023/12/14 11:24:55;;;;;;;4.68;3.60;;;;;;;12.09;88.52;92227.13;4993713;28;20428;-76
2023/12/14 11:27:31;;;;;;;8.23;4.22;;;;;;;11.65;90.65;92222.78;4992867;28;20054;-76
2023/12/14 11:30:00;;;;;;;6.43;3.63;;;;;;;11.77;90.71;92242.22;4992297;28;20504;-76
2023/12/14 11:32:27;;;;;;;5.10;3.10;;;;;;;11.59;90.04;92245.09;5006817;28;20050;-76